sensor_id;sensor_type;location;lat;lon;timestamp;P1;durP1;ratioP1;P2;durP2;ratioP2
73015;SDS011;61893;50.074;14.440;2023-11-21T00:01:06;5.72;;;2.20;;
73015;SDS011;61893;50.074;14.440;2023-11-21T00:03:39;4.40;;;2.03;;
73015;SDS011;61893;50.074;14.440;2023-11-21T00:06:10;5.55;;;2.10;;
73015;SDS011;61893;50.074;14.440;2023-11-21T00:08:36;6.57;;;2.38;;
73015;SDS011;61893;50.074;14.440;2023-11-21T00:11:02;8.98;;;2.63;;
73015;SDS011;61893;50.074;14.440;2023-11-21T00:13:30;5.20;;;2.40;;
73015;SDS011;61893;50.074;14.440;2023-11-21T00:15:57;7.82;;;2.28;;
73015;SDS011;61893;50.074;14.440;2023-11-21T00:18:43;7.97;;;2.30;;
73015;SDS011;61893;50.074;14.440;2023-11-21T00:21:26;5.82;;;2.55;;
73015;SDS011;61893;50.074;14.440;2023-11-21T00:23:58;6.78;;;2.25;;
73015;SDS011;61893;50.074;14.440;2023-11-21T00:26:24;8.32;;;2.58;;
73015;SDS011;61893;50.074;14.440;2023-11-21T00:28:50;3.55;;;2.00;;
73015;SDS011;61893;50.074;14.440;2023-11-21T00:31:30;4.30;;;1.98;;
73015;SDS011;61893;50.074;14.440;2023-11-21T00:33:56;4.40;;;2.17;;
73015;SDS011;61893;50.074;14.440;2023-11-21T00:36:22;6.57;;;2.85;;
73015;SDS011;61893;50.074;14.440;2023-11-21T00:38:48;7.68;;;2.33;;
73015;SDS011;61893;50.074;14.440;2023-11-21T00:41:14;4.38;;;1.98;;
73015;SDS011;61893;50.074;14.440;2023-11-21T00:43:49;4.45;;;2.33;;
73015;SDS011;61893;50.074;14.440;2023-11-21T00:46:15;4.85;;;1.83;;
73015;SDS011;61893;50.074;14.440;2023-11-21T00:48:41;5.03;;;2.00;;
73015;SDS011;61893;50.074;14.440;2023-11-21T00:51:10;4.65;;;2.00;;
73015;SDS011;61893;50.074;14.440;2023-11-21T00:53:37;5.95;;;1.80;;
73015;SDS011;61893;50.074;14.440;2023-11-21T00:56:03;6.93;;;2.22;;
73015;SDS011;61893;50.074;14.440;2023-11-21T00:58:29;5.15;;;2.25;;
73015;SDS011;61893;50.074;14.440;2023-11-21T01:00:55;7.13;;;1.88;;
73015;SDS011;61893;50.074;14.440;2023-11-21T01:03:21;3.70;;;2.03;;
73015;SDS011;61893;50.074;14.440;2023-11-21T01:05:47;5.28;;;2.33;;
73015;SDS011;61893;50.074;14.440;2023-11-21T01:08:21;6.50;;;2.20;;
73015;SDS011;61893;50.074;14.440;2023-11-21T01:10:48;4.07;;;2.67;;
73015;SDS011;61893;50.074;14.440;2023-11-21T01:13:14;4.85;;;2.88;;
73015;SDS011;61893;50.074;14.440;2023-11-21T01:15:40;7.07;;;3.03;;
73015;SDS011;61893;50.074;14.440;2023-11-21T01:18:07;4.95;;;2.17;;
73015;SDS011;61893;50.074;14.440;2023-11-21T01:20:33;7.97;;;2.47;;
73015;SDS011;61893;50.074;14.440;2023-11-21T01:23:02;6.45;;;2.58;;
73015;SDS011;61893;50.074;14.440;2023-11-21T01:25:41;4.32;;;2.10;;
73015;SDS011;61893;50.074;14.440;2023-11-21T01:28:07;5.95;;;2.35;;
73015;SDS011;61893;50.074;14.440;2023-11-21T01:30:33;6.70;;;3.00;;
73015;SDS011;61893;50.074;14.440;2023-11-21T01:32:59;3.63;;;2.30;;
73015;SDS011;61893;50.074;14.440;2023-11-21T01:35:25;4.45;;;2.20;;
73015;SDS011;61893;50.074;14.440;2023-11-21T01:38:01;5.30;;;2.10;;
73015;SDS011;61893;50.074;14.440;2023-11-21T01:40:27;5.43;;;2.10;;
73015;SDS011;61893;50.074;14.440;2023-11-21T01:42:54;5.73;;;2.47;;
73015;SDS011;61893;50.074;14.440;2023-11-21T01:45:19;5.28;;;2.00;;
73015;SDS011;61893;50.074;14.440;2023-11-21T01:47:45;3.88;;;2.03;;
73015;SDS011;61893;50.074;14.440;2023-11-21T01:50:13;4.97;;;1.90;;
73015;SDS011;61893;50.074;14.440;2023-11-21T01:52:41;5.32;;;2.30;;
73015;SDS011;61893;50.074;14.440;2023-11-21T01:55:10;6.45;;;2.25;;
73015;SDS011;61893;50.074;14.440;2023-11-21T01:57:42;4.85;;;1.88;;
73015;SDS011;61893;50.074;14.440;2023-11-21T02:00:08;5.45;;;2.10;;
73015;SDS011;61893;50.074;14.440;2023-11-21T02:02:45;4.13;;;2.00;;
73015;SDS011;61893;50.074;14.440;2023-11-21T02:05:12;7.50;;;2.03;;
73015;SDS011;61893;50.074;14.440;2023-11-21T02:07:40;4.95;;;1.88;;
73015;SDS011;61893;50.074;14.440;2023-11-21T02:10:06;5.00;;;2.20;;
73015;SDS011;61893;50.074;14.440;2023-11-21T02:12:33;4.72;;;1.95;;
73015;SDS011;61893;50.074;14.440;2023-11-21T02:15:03;8.27;;;2.40;;
73015;SDS011;61893;50.074;14.440;2023-11-21T02:17:35;5.32;;;1.90;;
73015;SDS011;61893;50.074;14.440;2023-11-21T02:20:01;5.90;;;1.93;;
73015;SDS011;61893;50.074;14.440;2023-11-21T02:22:28;4.27;;;2.13;;
73015;SDS011;61893;50.074;14.440;2023-11-21T02:24:58;2.63;;;1.70;;
73015;SDS011;61893;50.074;14.440;2023-11-21T02:27:24;3.30;;;2.20;;
73015;SDS011;61893;50.074;14.440;2023-11-21T02:29:50;3.83;;;1.83;;
73015;SDS011;61893;50.074;14.440;2023-11-21T02:32:19;5.30;;;2.30;;
73015;SDS011;61893;50.074;14.440;2023-11-21T02:34:48;4.20;;;2.10;;
73015;SDS011;61893;50.074;14.440;2023-11-21T02:37:17;4.20;;;1.90;;
73015;SDS011;61893;50.074;14.440;2023-11-21T02:39:42;4.00;;;2.13;;
73015;SDS011;61893;50.074;14.440;2023-11-21T02:42:08;4.75;;;2.15;;
73015;SDS011;61893;50.074;14.440;2023-11-21T02:44:34;3.90;;;2.45;;
73015;SDS011;61893;50.074;14.440;2023-11-21T02:47:00;3.42;;;2.13;;
73015;SDS011;61893;50.074;14.440;2023-11-21T02:49:25;5.40;;;1.95;;
73015;SDS011;61893;50.074;14.440;2023-11-21T02:51:54;3.05;;;1.83;;
73015;SDS011;61893;50.074;14.440;2023-11-21T02:54:22;7.13;;;2.30;;
73015;SDS011;61893;50.074;14.440;2023-11-21T02:56:48;6.32;;;2.08;;
73015;SDS011;61893;50.074;14.440;2023-11-21T02:59:15;3.92;;;2.00;;
73015;SDS011;61893;50.074;14.440;2023-11-21T03:01:42;5.17;;;2.10;;
73015;SDS011;61893;50.074;14.440;2023-11-21T03:04:07;6.10;;;2.50;;
73015;SDS011;61893;50.074;14.440;2023-11-21T03:06:33;3.55;;;2.03;;
73015;SDS011;61893;50.074;14.440;2023-11-21T03:08:59;3.10;;;1.85;;
73015;SDS011;61893;50.074;14.440;2023-11-21T03:11:25;4.22;;;2.00;;
73015;SDS011;61893;50.074;14.440;2023-11-21T03:13:51;4.78;;;2.20;;
73015;SDS011;61893;50.074;14.440;2023-11-21T03:16:18;4.57;;;1.77;;
73015;SDS011;61893;50.074;14.440;2023-11-21T03:18:44;8.00;;;1.90;;
73015;SDS011;61893;50.074;14.440;2023-11-21T03:21:10;4.63;;;2.15;;
73015;SDS011;61893;50.074;14.440;2023-11-21T03:23:37;4.97;;;2.35;;
73015;SDS011;61893;50.074;14.440;2023-11-21T03:26:03;4.10;;;2.23;;
73015;SDS011;61893;50.074;14.440;2023-11-21T03:28:29;9.20;;;2.70;;
73015;SDS011;61893;50.074;14.440;2023-11-21T03:30:55;5.53;;;2.45;;
73015;SDS011;61893;50.074;14.440;2023-11-21T03:33:21;4.77;;;2.23;;
73015;SDS011;61893;50.074;14.440;2023-11-21T03:35:48;3.05;;;1.90;;
73015;SDS011;61893;50.074;14.440;2023-11-21T03:38:14;6.07;;;2.00;;
73015;SDS011;61893;50.074;14.440;2023-11-21T03:40:41;5.20;;;2.10;;
73015;SDS011;61893;50.074;14.440;2023-11-21T03:43:10;5.82;;;2.17;;
73015;SDS011;61893;50.074;14.440;2023-11-21T03:45:36;7.97;;;2.20;;
73015;SDS011;61893;50.074;14.440;2023-11-21T03:48:01;6.17;;;2.53;;
73015;SDS011;61893;50.074;14.440;2023-11-21T03:50:31;6.70;;;2.67;;
73015;SDS011;61893;50.074;14.440;2023-11-21T03:52:59;5.03;;;2.00;;
73015;SDS011;61893;50.074;14.440;2023-11-21T03:55:25;3.47;;;1.87;;
73015;SDS011;61893;50.074;14.440;2023-11-21T03:57:51;3.93;;;1.90;;
73015;SDS011;61893;50.074;14.440;2023-11-21T04:00:18;4.50;;;2.17;;
73015;SDS011;61893;50.074;14.440;2023-11-21T04:02:45;4.60;;;2.10;;
73015;SDS011;61893;50.074;14.440;2023-11-21T04:05:13;5.77;;;2.07;;
73015;SDS011;61893;50.074;14.440;2023-11-21T04:07:39;4.37;;;2.17;;
73015;SDS011;61893;50.074;14.440;2023-11-21T04:10:06;5.73;;;2.40;;
73015;SDS011;61893;50.074;14.440;2023-11-21T04:12:38;5.50;;;2.25;;
73015;SDS011;61893;50.074;14.440;2023-11-21T04:15:04;6.23;;;2.37;;
73015;SDS011;61893;50.074;14.440;2023-11-21T04:17:34;4.10;;;2.00;;
73015;SDS011;61893;50.074;14.440;2023-11-21T04:20:00;4.75;;;2.13;;
73015;SDS011;61893;50.074;14.440;2023-11-21T04:22:28;4.43;;;2.15;;
73015;SDS011;61893;50.074;14.440;2023-11-21T04:24:54;5.33;;;2.50;;
73015;SDS011;61893;50.074;14.440;2023-11-21T04:27:20;4.53;;;2.20;;
73015;SDS011;61893;50.074;14.440;2023-11-21T04:29:47;6.13;;;2.03;;
73015;SDS011;61893;50.074;14.440;2023-11-21T04:32:13;5.07;;;2.13;;
73015;SDS011;61893;50.074;14.440;2023-11-21T04:34:38;6.70;;;2.00;;
73015;SDS011;61893;50.074;14.440;2023-11-21T04:37:06;8.13;;;2.20;;
73015;SDS011;61893;50.074;14.440;2023-11-21T04:39:32;5.37;;;2.23;;
73015;SDS011;61893;50.074;14.440;2023-11-21T04:42:12;5.83;;;2.40;;
73015;SDS011;61893;50.074;14.440;2023-11-21T04:44:38;5.83;;;2.00;;
73015;SDS011;61893;50.074;14.440;2023-11-21T04:47:06;5.23;;;2.43;;
73015;SDS011;61893;50.074;14.440;2023-11-21T04:49:33;4.53;;;2.20;;
73015;SDS011;61893;50.074;14.440;2023-11-21T04:52:12;5.38;;;2.28;;
73015;SDS011;61893;50.074;14.440;2023-11-21T04:54:38;3.83;;;2.00;;
73015;SDS011;61893;50.074;14.440;2023-11-21T04:57:05;5.43;;;2.20;;
73015;SDS011;61893;50.074;14.440;2023-11-21T04:59:33;3.70;;;1.97;;
73015;SDS011;61893;50.074;14.440;2023-11-21T05:01:59;5.03;;;1.88;;
73015;SDS011;61893;50.074;14.440;2023-11-21T05:04:37;4.43;;;2.35;;
73015;SDS011;61893;50.074;14.440;2023-11-21T05:07:03;4.30;;;1.63;;
73015;SDS011;61893;50.074;14.440;2023-11-21T05:09:29;2.70;;;1.85;;
73015;SDS011;61893;50.074;14.440;2023-11-21T05:12:00;4.73;;;1.70;;
73015;SDS011;61893;50.074;14.440;2023-11-21T05:14:27;6.35;;;1.73;;
73015;SDS011;61893;50.074;14.440;2023-11-21T05:16:53;3.47;;;1.70;;
73015;SDS011;61893;50.074;14.440;2023-11-21T05:19:19;3.75;;;2.03;;
73015;SDS011;61893;50.074;14.440;2023-11-21T05:21:44;3.90;;;1.75;;
73015;SDS011;61893;50.074;14.440;2023-11-21T05:24:11;4.60;;;1.80;;
73015;SDS011;61893;50.074;14.440;2023-11-21T05:26:37;3.28;;;2.13;;
73015;SDS011;61893;50.074;14.440;2023-11-21T05:29:04;3.63;;;1.63;;
73015;SDS011;61893;50.074;14.440;2023-11-21T05:31:29;4.23;;;1.97;;
73015;SDS011;61893;50.074;14.440;2023-11-21T05:33:55;5.47;;;1.73;;
73015;SDS011;61893;50.074;14.440;2023-11-21T05:36:21;3.15;;;1.70;;
73015;SDS011;61893;50.074;14.440;2023-11-21T05:38:46;3.27;;;2.20;;
73015;SDS011;61893;50.074;14.440;2023-11-21T05:41:12;4.17;;;1.90;;
73015;SDS011;61893;50.074;14.440;2023-11-21T05:43:39;5.50;;;1.90;;
73015;SDS011;61893;50.074;14.440;2023-11-21T05:46:07;8.83;;;1.97;;
73015;SDS011;61893;50.074;14.440;2023-11-21T05:48:34;4.38;;;1.88;;
73015;SDS011;61893;50.074;14.440;2023-11-21T05:51:07;4.70;;;1.77;;
73015;SDS011;61893;50.074;14.440;2023-11-21T05:53:33;3.30;;;1.85;;
73015;SDS011;61893;50.074;14.440;2023-11-21T05:55:59;3.75;;;2.22;;
73015;SDS011;61893;50.074;14.440;2023-11-21T05:58:25;4.07;;;1.90;;
73015;SDS011;61893;50.074;14.440;2023-11-21T06:00:57;4.70;;;1.80;;
73015;SDS011;61893;50.074;14.440;2023-11-21T06:03:25;5.13;;;2.17;;
73015;SDS011;61893;50.074;14.440;2023-11-21T06:05:54;5.22;;;2.00;;
73015;SDS011;61893;50.074;14.440;2023-11-21T06:08:20;4.00;;;1.80;;
73015;SDS011;61893;50.074;14.440;2023-11-21T06:11:05;4.20;;;2.05;;
73015;SDS011;61893;50.074;14.440;2023-11-21T06:13:31;2.78;;;2.00;;
73015;SDS011;61893;50.074;14.440;2023-11-21T06:15:56;2.80;;;1.50;;
73015;SDS011;61893;50.074;14.440;2023-11-21T06:18:22;2.90;;;1.98;;
73015;SDS011;61893;50.074;14.440;2023-11-21T06:21:02;3.60;;;2.42;;
73015;SDS011;61893;50.074;14.440;2023-11-21T06:23:28;2.30;;;1.67;;
73015;SDS011;61893;50.074;14.440;2023-11-21T06:25:54;4.05;;;1.80;;
73015;SDS011;61893;50.074;14.440;2023-11-21T06:28:20;2.15;;;1.42;;
73015;SDS011;61893;50.074;14.440;2023-11-21T06:30:48;6.35;;;1.80;;
73015;SDS011;61893;50.074;14.440;2023-11-21T06:33:32;4.10;;;2.33;;
73015;SDS011;61893;50.074;14.440;2023-11-21T06:35:57;4.82;;;2.13;;
73015;SDS011;61893;50.074;14.440;2023-11-21T06:38:38;7.68;;;2.33;;
73015;SDS011;61893;50.074;14.440;2023-11-21T06:41:04;3.67;;;1.85;;
73015;SDS011;61893;50.074;14.440;2023-11-21T06:43:32;2.90;;;1.90;;
73015;SDS011;61893;50.074;14.440;2023-11-21T06:46:02;6.10;;;2.20;;
73015;SDS011;61893;50.074;14.440;2023-11-21T06:48:28;4.90;;;2.03;;
73015;SDS011;61893;50.074;14.440;2023-11-21T06:51:10;5.30;;;1.93;;
73015;SDS011;61893;50.074;14.440;2023-11-21T06:53:44;7.18;;;2.42;;
73015;SDS011;61893;50.074;14.440;2023-11-21T06:56:17;5.40;;;2.60;;
73015;SDS011;61893;50.074;14.440;2023-11-21T06:59:19;7.43;;;3.00;;
73015;SDS011;61893;50.074;14.440;2023-11-21T07:02:31;4.20;;;2.25;;
73015;SDS011;61893;50.074;14.440;2023-11-21T07:05:55;4.50;;;2.42;;
73015;SDS011;61893;50.074;14.440;2023-11-21T07:09:26;7.53;;;2.38;;
73015;SDS011;61893;50.074;14.440;2023-11-21T07:12:08;3.65;;;2.03;;
73015;SDS011;61893;50.074;14.440;2023-11-21T07:14:51;5.93;;;2.90;;
73015;SDS011;61893;50.074;14.440;2023-11-21T07:17:52;4.53;;;2.08;;
73015;SDS011;61893;50.074;14.440;2023-11-21T07:20:54;6.93;;;2.20;;
73015;SDS011;61893;50.074;14.440;2023-11-21T07:24:05;3.67;;;1.90;;
73015;SDS011;61893;50.074;14.440;2023-11-21T07:27:58;3.90;;;2.17;;
73015;SDS011;61893;50.074;14.440;2023-11-21T07:31:33;5.65;;;1.85;;
73015;SDS011;61893;50.074;14.440;2023-11-21T07:35:52;3.50;;;1.90;;
73015;SDS011;61893;50.074;14.440;2023-11-21T07:39:37;3.72;;;2.13;;
73015;SDS011;61893;50.074;14.440;2023-11-21T07:43:43;5.80;;;2.00;;
73015;SDS011;61893;50.074;14.440;2023-11-21T07:51:07;4.22;;;2.13;;
73015;SDS011;61893;50.074;14.440;2023-11-21T07:54:55;6.85;;;2.50;;
73015;SDS011;61893;50.074;14.440;2023-11-21T07:57:32;7.15;;;3.50;;
73015;SDS011;61893;50.074;14.440;2023-11-21T08:00:04;3.83;;;2.20;;
73015;SDS011;61893;50.074;14.440;2023-11-21T08:02:35;4.07;;;2.60;;
73015;SDS011;61893;50.074;14.440;2023-11-21T08:05:01;5.25;;;2.40;;
73015;SDS011;61893;50.074;14.440;2023-11-21T08:07:29;4.03;;;2.40;;
73015;SDS011;61893;50.074;14.440;2023-11-21T08:10:16;4.63;;;2.13;;
73015;SDS011;61893;50.074;14.440;2023-11-21T08:12:44;5.82;;;2.40;;
73015;SDS011;61893;50.074;14.440;2023-11-21T08:15:10;6.47;;;2.50;;
73015;SDS011;61893;50.074;14.440;2023-11-21T08:17:38;4.38;;;2.13;;
73015;SDS011;61893;50.074;14.440;2023-11-21T08:20:04;4.97;;;2.20;;
73015;SDS011;61893;50.074;14.440;2023-11-21T08:22:32;5.38;;;2.00;;
73015;SDS011;61893;50.074;14.440;2023-11-21T08:25:00;3.70;;;1.70;;
73015;SDS011;61893;50.074;14.440;2023-11-21T08:27:30;4.38;;;2.20;;
73015;SDS011;61893;50.074;14.440;2023-11-21T08:30:00;6.57;;;2.47;;
73015;SDS011;61893;50.074;14.440;2023-11-21T08:32:58;5.45;;;2.85;;
73015;SDS011;61893;50.074;14.440;2023-11-21T08:35:38;6.05;;;2.50;;
73015;SDS011;61893;50.074;14.440;2023-11-21T08:38:08;8.43;;;4.20;;
73015;SDS011;61893;50.074;14.440;2023-11-21T08:41:25;8.63;;;3.60;;
73015;SDS011;61893;50.074;14.440;2023-11-21T08:43:57;5.28;;;3.00;;
73015;SDS011;61893;50.074;14.440;2023-11-21T08:47:20;5.13;;;3.00;;
73015;SDS011;61893;50.074;14.440;2023-11-21T08:50:48;5.55;;;2.88;;
73015;SDS011;61893;50.074;14.440;2023-11-21T08:54:02;6.82;;;2.03;;
73015;SDS011;61893;50.074;14.440;2023-11-21T09:03:09;7.85;;;2.38;;
73015;SDS011;61893;50.074;14.440;2023-11-21T09:05:39;7.75;;;2.45;;
73015;SDS011;61893;50.074;14.440;2023-11-21T09:08:19;7.13;;;2.42;;
73015;SDS011;61893;50.074;14.440;2023-11-21T09:11:10;3.97;;;2.03;;
73015;SDS011;61893;50.074;14.440;2023-11-21T09:13:45;5.57;;;2.70;;
73015;SDS011;61893;50.074;14.440;2023-11-21T09:17:12;5.40;;;2.40;;
73015;SDS011;61893;50.074;14.440;2023-11-21T09:20:44;4.03;;;2.47;;
73015;SDS011;61893;50.074;14.440;2023-11-21T09:23:55;5.35;;;2.40;;
73015;SDS011;61893;50.074;14.440;2023-11-21T09:26:40;7.22;;;3.60;;
73015;SDS011;61893;50.074;14.440;2023-11-21T09:30:01;9.05;;;2.55;;
73015;SDS011;61893;50.074;14.440;2023-11-21T09:32:40;6.28;;;2.65;;
73015;SDS011;61893;50.074;14.440;2023-11-21T09:35:25;13.43;;;3.35;;
73015;SDS011;61893;50.074;14.440;2023-11-21T09:38:23;7.28;;;2.92;;
73015;SDS011;61893;50.074;14.440;2023-11-21T09:41:34;8.30;;;3.40;;
73015;SDS011;61893;50.074;14.440;2023-11-21T09:44:44;6.57;;;3.15;;
73015;SDS011;61893;50.074;14.440;2023-11-21T09:48:16;12.70;;;3.95;;
73015;SDS011;61893;50.074;14.440;2023-11-21T09:51:27;9.65;;;3.53;;
73015;SDS011;61893;50.074;14.440;2023-11-21T09:54:36;9.30;;;3.67;;
73015;SDS011;61893;50.074;14.440;2023-11-21T09:57:21;6.78;;;3.45;;
73015;SDS011;61893;50.074;14.440;2023-11-21T10:03:45;5.07;;;2.78;;
73015;SDS011;61893;50.074;14.440;2023-11-21T10:07:38;7.10;;;3.40;;
73015;SDS011;61893;50.074;14.440;2023-11-21T10:11:14;8.50;;;2.80;;
73015;SDS011;61893;50.074;14.440;2023-11-21T10:14:38;7.75;;;3.40;;
73015;SDS011;61893;50.074;14.440;2023-11-21T10:23:24;5.47;;;2.60;;
73015;SDS011;61893;50.074;14.440;2023-11-21T10:26:00;5.90;;;2.97;;
73015;SDS011;61893;50.074;14.440;2023-11-21T10:28:27;7.38;;;3.25;;
73015;SDS011;61893;50.074;14.440;2023-11-21T10:31:03;10.02;;;3.38;;
73015;SDS011;61893;50.074;14.440;2023-11-21T10:33:36;8.20;;;3.15;;
73015;SDS011;61893;50.074;14.440;2023-11-21T10:36:07;6.13;;;2.70;;
73015;SDS011;61893;50.074;14.440;2023-11-21T10:38:42;5.70;;;3.00;;
73015;SDS011;61893;50.074;14.440;2023-11-21T10:41:31;8.82;;;3.20;;
73015;SDS011;61893;50.074;14.440;2023-11-21T10:44:20;6.03;;;2.55;;
73015;SDS011;61893;50.074;14.440;2023-11-21T10:52:26;6.53;;;2.83;;
73015;SDS011;61893;50.074;14.440;2023-11-21T10:55:16;12.70;;;3.38;;
73015;SDS011;61893;50.074;14.440;2023-11-21T10:58:03;14.20;;;3.67;;
73015;SDS011;61893;50.074;14.440;2023-11-21T11:01:07;8.63;;;3.20;;
73015;SDS011;61893;50.074;14.440;2023-11-21T11:03:50;7.70;;;3.08;;
73015;SDS011;61893;50.074;14.440;2023-11-21T11:07:11;7.57;;;3.25;;
73015;SDS011;61893;50.074;14.440;2023-11-21T11:13:45;4.55;;;2.55;;
73015;SDS011;61893;50.074;14.440;2023-11-21T11:17:20;5.78;;;2.92;;
73015;SDS011;61893;50.074;14.440;2023-11-21T11:19:47;7.22;;;2.75;;
73015;SDS011;61893;50.074;14.440;2023-11-21T11:31:44;4.00;;;2.38;;
73015;SDS011;61893;50.074;14.440;2023-11-21T11:34:32;4.50;;;2.60;;
73015;SDS011;61893;50.074;14.440;2023-11-21T11:43:07;7.55;;;2.83;;
73015;SDS011;61893;50.074;14.440;2023-11-21T11:46:07;11.05;;;2.85;;
73015;SDS011;61893;50.074;14.440;2023-11-21T11:48:42;5.38;;;2.55;;
73015;SDS011;61893;50.074;14.440;2023-11-21T11:51:11;5.07;;;2.13;;
73015;SDS011;61893;50.074;14.440;2023-11-21T11:58:58;5.85;;;2.53;;
73015;SDS011;61893;50.074;14.440;2023-11-21T12:15:04;7.63;;;2.85;;
73015;SDS011;61893;50.074;14.440;2023-11-21T12:18:25;6.57;;;2.60;;
73015;SDS011;61893;50.074;14.440;2023-11-21T12:59:12;6.93;;;3.78;;
73015;SDS011;61893;50.074;14.440;2023-11-21T13:01:59;5.75;;;3.05;;
73015;SDS011;61893;50.074;14.440;2023-11-21T13:16:28;10.25;;;3.88;;
73015;SDS011;61893;50.074;14.440;2023-11-21T13:18:55;5.13;;;3.38;;
73015;SDS011;61893;50.074;14.440;2023-11-21T13:21:22;8.18;;;3.22;;
73015;SDS011;61893;50.074;14.440;2023-11-21T13:23:48;7.85;;;3.67;;
73015;SDS011;61893;50.074;14.440;2023-11-21T13:26:31;6.45;;;3.35;;
73015;SDS011;61893;50.074;14.440;2023-11-21T13:29:09;7.93;;;4.28;;
73015;SDS011;61893;50.074;14.440;2023-11-21T13:32:00;8.88;;;4.15;;
73015;SDS011;61893;50.074;14.440;2023-11-21T13:34:52;6.03;;;3.30;;
73015;SDS011;61893;50.074;14.440;2023-11-21T13:37:34;6.70;;;3.33;;
73015;SDS011;61893;50.074;14.440;2023-11-21T13:40:21;5.05;;;3.60;;
73015;SDS011;61893;50.074;14.440;2023-11-21T13:42:53;7.50;;;4.18;;
73015;SDS011;61893;50.074;14.440;2023-11-21T13:45:37;9.10;;;3.85;;
73015;SDS011;61893;50.074;14.440;2023-11-21T13:48:53;9.10;;;5.03;;
73015;SDS011;61893;50.074;14.440;2023-11-21T15:42:19;6.63;;;3.00;;
73015;SDS011;61893;50.074;14.440;2023-11-21T15:48:36;3.67;;;2.43;;
73015;SDS011;61893;50.074;14.440;2023-11-21T17:00:22;3.83;;;2.37;;
73015;SDS011;61893;50.074;14.440;2023-11-21T17:06:57;5.80;;;2.30;;
73015;SDS011;61893;50.074;14.440;2023-11-21T19:26:46;7.07;;;3.33;;
73015;SDS011;61893;50.074;14.440;2023-11-21T19:29:14;7.17;;;3.23;;
73015;SDS011;61893;50.074;14.440;2023-11-21T19:31:40;5.93;;;3.60;;
73015;SDS011;61893;50.074;14.440;2023-11-21T19:34:11;7.80;;;4.10;;
73015;SDS011;61893;50.074;14.440;2023-11-21T19:51:03;4.93;;;2.67;;
73015;SDS011;61893;50.074;14.440;2023-11-21T20:02:11;3.43;;;2.00;;
73015;SDS011;61893;50.074;14.440;2023-11-21T20:04:39;7.73;;;2.47;;
73015;SDS011;61893;50.074;14.440;2023-11-21T20:07:15;3.17;;;2.00;;
73015;SDS011;61893;50.074;14.440;2023-11-21T20:09:53;4.50;;;1.90;;
73015;SDS011;61893;50.074;14.440;2023-11-21T20:12:19;4.47;;;2.13;;
73015;SDS011;61893;50.074;14.440;2023-11-21T20:20:17;2.93;;;1.93;;
73015;SDS011;61893;50.074;14.440;2023-11-21T20:22:59;4.00;;;2.17;;
73015;SDS011;61893;50.074;14.440;2023-11-21T20:25:27;4.53;;;2.20;;
73015;SDS011;61893;50.074;14.440;2023-11-21T20:27:57;4.80;;;2.20;;
73015;SDS011;61893;50.074;14.440;2023-11-21T20:30:33;4.87;;;2.40;;
73015;SDS011;61893;50.074;14.440;2023-11-21T20:32:59;3.70;;;2.07;;
73015;SDS011;61893;50.074;14.440;2023-11-21T20:35:38;3.33;;;2.20;;
73015;SDS011;61893;50.074;14.440;2023-11-21T20:38:06;3.13;;;1.80;;
73015;SDS011;61893;50.074;14.440;2023-11-21T20:40:56;3.33;;;1.73;;
73015;SDS011;61893;50.074;14.440;2023-11-21T20:43:31;3.87;;;1.67;;
73015;SDS011;61893;50.074;14.440;2023-11-21T20:45:59;1.90;;;1.33;;
73015;SDS011;61893;50.074;14.440;2023-11-21T20:48:29;3.77;;;1.80;;
73015;SDS011;61893;50.074;14.440;2023-11-21T20:51:02;2.63;;;1.53;;
73015;SDS011;61893;50.074;14.440;2023-11-21T20:53:47;2.10;;;1.30;;
73015;SDS011;61893;50.074;14.440;2023-11-21T20:56:13;4.77;;;1.63;;
73015;SDS011;61893;50.074;14.440;2023-11-21T20:59:00;2.90;;;1.67;;
73015;SDS011;61893;50.074;14.440;2023-11-21T21:01:32;4.37;;;1.20;;
73015;SDS011;61893;50.074;14.440;2023-11-21T21:04:00;2.67;;;1.37;;
73015;SDS011;61893;50.074;14.440;2023-11-21T21:06:50;1.57;;;1.00;;
73015;SDS011;61893;50.074;14.440;2023-11-21T21:09:37;3.37;;;1.63;;
73015;SDS011;61893;50.074;14.440;2023-11-21T21:12:24;3.40;;;1.87;;
73015;SDS011;61893;50.074;14.440;2023-11-21T21:15:12;3.13;;;1.80;;
73015;SDS011;61893;50.074;14.440;2023-11-21T21:17:40;2.53;;;1.60;;
73015;SDS011;61893;50.074;14.440;2023-11-21T21:20:26;2.47;;;1.43;;
73015;SDS011;61893;50.074;14.440;2023-11-21T21:23:07;3.67;;;1.70;;
73015;SDS011;61893;50.074;14.440;2023-11-21T21:25:34;2.30;;;1.10;;
73015;SDS011;61893;50.074;14.440;2023-11-21T21:28:00;1.77;;;1.53;;
73015;SDS011;61893;50.074;14.440;2023-11-21T21:33:13;3.93;;;1.77;;
73015;SDS011;61893;50.074;14.440;2023-11-21T21:35:56;2.73;;;1.83;;
73015;SDS011;61893;50.074;14.440;2023-11-21T21:41:08;2.77;;;1.60;;
73015;SDS011;61893;50.074;14.440;2023-11-21T21:43:37;2.57;;;1.70;;
73015;SDS011;61893;50.074;14.440;2023-11-21T21:46:07;2.10;;;1.40;;
73015;SDS011;61893;50.074;14.440;2023-11-21T21:48:34;2.73;;;1.70;;
73015;SDS011;61893;50.074;14.440;2023-11-21T21:51:04;2.17;;;1.30;;
73015;SDS011;61893;50.074;14.440;2023-11-21T21:54:04;2.60;;;1.63;;
73015;SDS011;61893;50.074;14.440;2023-11-21T21:56:35;3.50;;;2.10;;
73015;SDS011;61893;50.074;14.440;2023-11-21T21:59:02;4.33;;;2.37;;
73015;SDS011;61893;50.074;14.440;2023-11-21T22:01:28;3.20;;;1.70;;
73015;SDS011;61893;50.074;14.440;2023-11-21T22:06:44;3.67;;;2.07;;
73015;SDS011;61893;50.074;14.440;2023-11-21T22:09:10;5.10;;;2.93;;
73015;SDS011;61893;50.074;14.440;2023-11-21T22:11:44;6.32;;;2.88;;
73015;SDS011;61893;50.074;14.440;2023-11-21T22:14:10;3.77;;;2.37;;
73015;SDS011;61893;50.074;14.440;2023-11-21T22:16:40;3.37;;;2.30;;
73015;SDS011;61893;50.074;14.440;2023-11-21T22:19:10;4.83;;;2.30;;
73015;SDS011;61893;50.074;14.440;2023-11-21T22:21:42;5.33;;;2.50;;
73015;SDS011;61893;50.074;14.440;2023-11-21T22:24:08;3.35;;;2.20;;
73015;SDS011;61893;50.074;14.440;2023-11-21T22:26:35;6.30;;;2.73;;
73015;SDS011;61893;50.074;14.440;2023-11-21T22:29:01;9.10;;;3.90;;
73015;SDS011;61893;50.074;14.440;2023-11-21T22:31:39;4.13;;;2.00;;
73015;SDS011;61893;50.074;14.440;2023-11-21T22:34:41;4.17;;;2.40;;
73015;SDS011;61893;50.074;14.440;2023-11-21T22:37:09;3.53;;;2.10;;
73015;SDS011;61893;50.074;14.440;2023-11-21T22:42:17;3.47;;;2.00;;
73015;SDS011;61893;50.074;14.440;2023-11-21T22:44:44;3.43;;;1.90;;
73015;SDS011;61893;50.074;14.440;2023-11-21T22:53:19;5.10;;;2.57;;
73015;SDS011;61893;50.074;14.440;2023-11-21T22:55:47;4.00;;;2.43;;
73015;SDS011;61893;50.074;14.440;2023-11-21T22:58:12;3.30;;;1.80;;
73015;SDS011;61893;50.074;14.440;2023-11-21T23:00:44;4.23;;;2.23;;
73015;SDS011;61893;50.074;14.440;2023-11-21T23:03:11;3.17;;;1.70;;
73015;SDS011;61893;50.074;14.440;2023-11-21T23:05:38;3.43;;;2.20;;
73015;SDS011;61893;50.074;14.440;2023-11-21T23:08:04;3.13;;;1.73;;
73015;SDS011;61893;50.074;14.440;2023-11-21T23:10:33;2.30;;;1.60;;
73015;SDS011;61893;50.074;14.440;2023-11-21T23:12:59;2.90;;;2.07;;
73015;SDS011;61893;50.074;14.440;2023-11-21T23:15:25;3.23;;;2.10;;
73015;SDS011;61893;50.074;14.440;2023-11-21T23:17:51;2.50;;;1.63;;
73015;SDS011;61893;50.074;14.440;2023-11-21T23:20:18;2.70;;;1.90;;
73015;SDS011;61893;50.074;14.440;2023-11-21T23:22:46;2.87;;;1.73;;
73015;SDS011;61893;50.074;14.440;2023-11-21T23:25:13;4.17;;;2.00;;
73015;SDS011;61893;50.074;14.440;2023-11-21T23:27:41;2.67;;;1.60;;
73015;SDS011;61893;50.074;14.440;2023-11-21T23:30:07;1.70;;;1.37;;
73015;SDS011;61893;50.074;14.440;2023-11-21T23:32:33;2.40;;;1.57;;